Time;durP1;ratioP1;P1;durP2;ratioP2;P2;SDS_P1;SDS_P2;PMS_P1;PMS_P2;Temp;Humidity;BMP_temperature;BMP_pressure;BME280_temperature;BME280_humidity;BME280_pressure;Samples;Min_cycle;Max_cycle;Signal;HPM_P1;HPM_P2
2022/12/03 00:01:46;;;;;;;38.75;21.75;;;;;;;;;;5054806;28;20029;-80
2022/12/03 00:04:12;;;;;;;51.10;27.85;;;;;;;;;;5036491;28;20467;-79
2022/12/03 00:06:38;;;;;;;44.72;24.70;;;;;;;;;;5054679;28;20112;-79
2022/12/03 00:09:04;;;;;;;53.03;29.40;;;;;;;;;;5053269;28;20506;-79
2022/12/03 00:11:30;;;;;;;52.70;27.75;;;;;;;;;;5035476;28;20029;-79
2022/12/03 00:13:56;;;;;;;134.95;68.32;;;;;;;;;;5054423;28;20062;-80
2022/12/03 00:16:23;;;;;;;124.65;66.05;;;;;;;;;;5053977;28;20033;-80
2022/12/03 00:18:52;;;;;;;115.43;60.83;;;;;;;;;;5035524;28;20037;-80
2022/12/03 00:21:18;;;;;;;98.00;52.92;;;;;;;;;;5053915;28;20040;-80
2022/12/03 00:23:44;;;;;;;71.85;41.65;;;;;;;;;;5054431;28;20029;-79
2022/12/03 00:26:10;;;;;;;56.38;35.45;;;;;;;;;;5034350;28;20033;-80
2022/12/03 00:28:36;;;;;;;63.85;42.85;;;;;;;;;;5044391;28;20024;-79
2022/12/03 00:31:02;;;;;;;57.75;38.40;;;;;;;;;;5053914;28;20025;-79
2022/12/03 00:33:28;;;;;;;45.60;31.38;;;;;;;;;;5035552;28;20107;-80
2022/12/03 00:35:54;;;;;;;46.13;30.13;;;;;;;;;;5036161;28;20064;-79
2022/12/03 00:38:20;;;;;;;40.42;26.67;;;;;;;;;;5054047;28;20047;-79
2022/12/03 00:40:46;;;;;;;45.33;28.25;;;;;;;;;;5035724;28;20479;-79
2022/12/03 00:43:12;;;;;;;38.30;23.15;;;;;;;;;;5048905;28;20041;-80
2022/12/03 00:45:38;;;;;;;35.40;21.23;;;;;;;;;;5053444;28;20033;-80
2022/12/03 00:48:04;;;;;;;36.17;23.25;;;;;;;;;;5053255;28;20136;-79
2022/12/03 00:50:30;;;;;;;35.80;21.45;;;;;;;;;;5053402;28;20102;-79
2022/12/03 00:52:56;;;;;;;37.75;23.08;;;;;;;;;;5031904;28;20029;-79
2022/12/03 00:55:22;;;;;;;35.85;21.63;;;;;;;;;;5033697;28;20033;-80
2022/12/03 00:57:48;;;;;;;40.17;25.60;;;;;;;;;;5053489;28;20148;-80
2022/12/03 01:00:14;;;;;;;35.20;21.73;;;;;;;;;;5052370;28;20404;-79
2022/12/03 01:02:40;;;;;;;34.13;20.60;;;;;;;;;;5053673;28;20033;-79
2022/12/03 01:05:06;;;;;;;32.90;20.55;;;;;;;;;;5052743;28;20033;-79
2022/12/03 01:07:32;;;;;;;57.20;35.10;;;;;;;;;;5052626;28;20037;-79
2022/12/03 01:09:58;;;;;;;47.53;28.88;;;;;;;;;;5052548;28;20025;-79
2022/12/03 01:12:24;;;;;;;44.42;26.58;;;;;;;;;;5051215;28;20372;-79
2022/12/03 01:14:50;;;;;;;37.78;20.70;;;;;;;;;;5033024;28;20025;-80
2022/12/03 01:17:16;;;;;;;33.58;19.42;;;;;;;;;;5050381;28;20858;-80
2022/12/03 01:19:43;;;;;;;31.08;17.75;;;;;;;;;;5047451;28;20039;-79
2022/12/03 01:22:09;;;;;;;31.55;18.50;;;;;;;;;;5052518;28;20034;-80
2022/12/03 01:24:35;;;;;;;32.05;19.55;;;;;;;;;;5052297;28;20612;-79
2022/12/03 01:27:01;;;;;;;31.75;17.92;;;;;;;;;;5032502;28;20025;-79
2022/12/03 01:29:27;;;;;;;27.17;15.82;;;;;;;;;;5050236;28;20029;-80
2022/12/03 01:34:38;;;;;;;30.35;16.83;;;;;;;;;;5038036;28;20039;-80
2022/12/03 01:37:04;;;;;;;30.75;16.58;;;;;;;;;;5031038;28;20116;-79
2022/12/03 01:39:29;;;;;;;28.65;17.42;;;;;;;;;;5017803;28;20033;-80
2022/12/03 01:41:57;;;;;;;26.80;16.33;;;;;;;;;;5033775;28;20029;-80
2022/12/03 01:44:25;;;;;;;24.77;14.98;;;;;;;;;;5051047;28;20032;-79
2022/12/03 01:46:52;;;;;;;26.73;14.75;;;;;;;;;;5015298;28;20037;-79
2022/12/03 01:49:20;;;;;;;29.55;17.20;;;;;;;;;;5041397;28;20044;-79
2022/12/03 01:51:47;;;;;;;25.67;15.32;;;;;;;;;;5051906;28;20899;-79
2022/12/03 01:54:16;;;;;;;21.50;13.05;;;;;;;;;;5051665;28;20505;-79
2022/12/03 01:56:42;;;;;;;23.50;12.73;;;;;;;;;;5051645;28;20076;-80
2022/12/03 01:59:09;;;;;;;25.05;14.35;;;;;;;;;;5051173;28;20053;-79
2022/12/03 02:01:35;;;;;;;28.55;15.50;;;;;;;;;;5049682;28;20043;-79
2022/12/03 02:04:00;;;;;;;33.25;17.73;;;;;;;;;;5052438;28;20108;-80
2022/12/03 02:06:28;;;;;;;29.33;16.50;;;;;;;;;;5051099;28;20036;-79
2022/12/03 02:08:58;;;;;;;28.00;15.93;;;;;;;;;;5034083;28;20066;-79
2022/12/03 02:11:27;;;;;;;31.25;18.23;;;;;;;;;;5051268;28;20215;-79
2022/12/03 02:14:00;;;;;;;31.40;17.50;;;;;;;;;;5046942;28;20034;-79
2022/12/03 02:16:25;;;;;;;;;;;;;;;;;;5033201;28;20033;-79
2022/12/03 02:18:51;;;;;;;27.90;15.88;;;;;;;;;;5051976;28;19913;-79
2022/12/03 02:21:47;;;;;;;28.52;16.70;;;;;;;;;;5032926;28;20047;-79
2022/12/03 02:24:31;;;;;;;30.52;16.35;;;;;;;;;;4947047;28;20115;-79
2022/12/03 02:26:57;;;;;;;27.60;15.82;;;;;;;;;;5050549;28;20115;-79
2022/12/03 02:29:24;;;;;;;30.05;17.27;;;;;;;;;;5051261;28;20115;-79
2022/12/03 02:31:50;;;;;;;28.00;16.92;;;;;;;;;;5051042;28;20021;-79
2022/12/03 02:34:32;;;;;;;31.95;17.27;;;;;;;;;;5033950;28;20040;-79
2022/12/03 02:36:59;;;;;;;27.13;15.82;;;;;;;;;;5040420;28;20479;-79
2022/12/03 02:39:25;;;;;;;31.55;20.05;;;;;;;;;;5044368;28;20047;-79
2022/12/03 02:44:35;;;;;;;36.03;20.48;;;;;;;;;;5052810;28;20051;-79
2022/12/03 02:47:01;;;;;;;40.45;24.02;;;;;;;;;;5054551;28;20092;-79
2022/12/03 02:49:27;;;;;;;35.45;21.92;;;;;;;;;;5048449;28;20909;-79
2022/12/03 02:51:53;;;;;;;29.48;19.02;;;;;;;;;;5019989;28;20027;-79
2022/12/03 02:54:19;;;;;;;32.88;18.90;;;;;;;;;;5055055;28;20029;-79
2022/12/03 02:56:45;;;;;;;30.35;16.55;;;;;;;;;;5055213;28;20087;-80
2022/12/03 02:59:12;;;;;;;32.33;18.13;;;;;;;;;;5036959;28;20071;-80
2022/12/03 03:01:38;;;;;;;30.08;16.38;;;;;;;;;;5055211;28;20025;-79
2022/12/03 03:04:04;;;;;;;27.95;16.08;;;;;;;;;;5055421;28;20036;-80
2022/12/03 03:06:30;;;;;;;27.88;16.27;;;;;;;;;;5054661;28;20163;-79
2022/12/03 03:08:56;;;;;;;30.38;17.17;;;;;;;;;;5054932;28;20029;-79
2022/12/03 03:11:23;;;;;;;27.75;16.48;;;;;;;;;;5054568;28;20032;-79
2022/12/03 03:13:49;;;;;;;31.33;19.75;;;;;;;;;;5053558;28;20035;-80
2022/12/03 03:16:15;;;;;;;28.58;15.25;;;;;;;;;;5036898;28;20387;-79
2022/12/03 03:18:41;;;;;;;29.90;16.23;;;;;;;;;;5054491;28;20029;-80
2022/12/03 03:21:07;;;;;;;29.77;17.08;;;;;;;;;;5054734;28;20107;-79
2022/12/03 03:23:33;;;;;;;25.38;16.98;;;;;;;;;;5047610;28;20108;-79
2022/12/03 03:26:09;;;;;;;25.73;14.80;;;;;;;;;;5049201;28;20369;-79
2022/12/03 03:28:39;;;;;;;25.30;13.70;;;;;;;;;;5051474;28;20040;-79
2022/12/03 03:31:06;;;;;;;25.75;14.13;;;;;;;;;;5052137;28;20056;-79
2022/12/03 03:33:32;;;;;;;27.10;14.50;;;;;;;;;;5048712;28;20051;-79
2022/12/03 03:35:59;;;;;;;26.85;14.75;;;;;;;;;;5036875;28;20057;-79
2022/12/03 03:38:26;;;;;;;25.90;13.52;;;;;;;;;;5054334;28;20040;-80
2022/12/03 03:40:53;;;;;;;24.42;14.63;;;;;;;;;;5054607;28;20029;-79
2022/12/03 03:43:20;;;;;;;24.70;13.63;;;;;;;;;;5054221;28;20029;-79
2022/12/03 03:45:46;;;;;;;26.38;14.38;;;;;;;;;;5032830;28;20048;-79
2022/12/03 03:48:12;;;;;;;23.67;14.52;;;;;;;;;;5034220;28;20033;-79
2022/12/03 03:50:38;;;;;;;20.67;13.07;;;;;;;;;;5034412;28;20040;-79
2022/12/03 03:53:04;;;;;;;24.15;13.57;;;;;;;;;;5043565;28;20036;-79
2022/12/03 03:55:31;;;;;;;25.30;14.27;;;;;;;;;;5054153;28;20029;-80
2022/12/03 03:57:57;;;;;;;29.27;16.15;;;;;;;;;;5053197;28;20144;-79
2022/12/03 04:00:23;;;;;;;22.10;13.93;;;;;;;;;;5053510;28;20427;-79
2022/12/03 04:02:49;;;;;;;25.27;14.18;;;;;;;;;;5054048;28;20112;-79
2022/12/03 04:05:17;;;;;;;22.58;12.55;;;;;;;;;;5051899;28;20029;-79
2022/12/03 04:07:43;;;;;;;21.98;11.63;;;;;;;;;;5036353;28;20764;-79
2022/12/03 04:12:54;;;;;;;18.65;11.68;;;;;;;;;;5053913;28;20036;-79
2022/12/03 04:15:20;;;;;;;22.88;11.60;;;;;;;;;;5045155;28;20033;-79
2022/12/03 04:18:41;;;;;;;20.67;12.25;;;;;;;;;;5054367;28;20146;-80
2022/12/03 04:20:32;;;;;;;24.48;12.13;;;;;;;;;;5052817;28;20127;-79
2022/12/03 04:22:58;;;;;;;21.88;11.82;;;;;;;;;;5036102;28;20040;-79
2022/12/03 04:30:53;;;;;;;19.88;10.60;;;;;;;;;;5051703;28;20530;-79
2022/12/03 04:36:04;;;;;;;21.20;12.20;;;;;;;;;;5053166;28;20040;-79
2022/12/03 04:38:30;;;;;;;21.60;11.95;;;;;;;;;;5035668;28;20064;-79
2022/12/03 04:41:05;;;;;;;21.23;12.20;;;;;;;;;;5052964;28;20456;-80
2022/12/03 04:43:32;;;;;;;25.92;14.60;;;;;;;;;;5053645;28;20037;-79
2022/12/03 04:45:58;;;;;;;21.67;13.38;;;;;;;;;;5052299;28;20052;-80
2022/12/03 04:48:24;;;;;;;26.27;14.75;;;;;;;;;;5043035;28;20044;-79
2022/12/03 04:50:50;;;;;;;28.23;15.52;;;;;;;;;;5052428;28;20029;-79
2022/12/03 04:53:16;;;;;;;38.83;21.27;;;;;;;;;;5053201;28;20025;-79
2022/12/03 04:55:42;;;;;;;34.72;19.23;;;;;;;;;;5052272;28;20037;-80
2022/12/03 04:58:08;;;;;;;29.00;16.70;;;;;;;;;;5023334;28;20099;-79
2022/12/03 05:00:34;;;;;;;24.70;13.90;;;;;;;;;;5052288;28;20029;-79
2022/12/03 05:03:00;;;;;;;24.27;14.05;;;;;;;;;;5052715;28;20033;-79
2022/12/03 05:05:26;;;;;;;25.30;13.07;;;;;;;;;;5043251;28;20037;-79
2022/12/03 05:07:52;;;;;;;21.67;12.55;;;;;;;;;;5052505;28;20028;-79
2022/12/03 05:10:18;;;;;;;26.88;14.80;;;;;;;;;;5033935;28;20577;-80
2022/12/03 05:12:44;;;;;;;21.08;12.65;;;;;;;;;;5029475;28;20029;-79
2022/12/03 05:15:10;;;;;;;20.40;12.50;;;;;;;;;;5052268;28;20035;-79
2022/12/03 05:17:36;;;;;;;19.65;12.02;;;;;;;;;;5051803;28;20044;-79
2022/12/03 05:22:47;;;;;;;23.50;12.93;;;;;;;;;;5049519;28;20063;-79
2022/12/03 05:25:14;;;;;;;20.75;11.80;;;;;;;;;;5044020;28;20468;-79
2022/12/03 05:27:40;;;;;;;23.52;12.52;;;;;;;;;;5051599;28;20495;-79
2022/12/03 05:30:06;;;;;;;26.00;13.07;;;;;;;;;;5052041;28;20057;-79
2022/12/03 05:32:32;;;;;;;22.00;12.80;;;;;;;;;;5026787;28;20538;-79
2022/12/03 05:34:58;;;;;;;22.95;13.27;;;;;;;;;;5052208;28;20036;-79
2022/12/03 05:37:24;;;;;;;26.75;16.10;;;;;;;;;;5038547;28;20045;-79
2022/12/03 05:39:50;;;;;;;28.35;15.45;;;;;;;;;;5044147;28;20112;-79
2022/12/03 05:45:00;;;;;;;24.48;14.00;;;;;;;;;;5050622;28;20087;-79
2022/12/03 05:47:26;;;;;;;21.63;12.93;;;;;;;;;;5051313;28;20033;-78
2022/12/03 05:49:52;;;;;;;23.25;15.35;;;;;;;;;;5051993;28;20025;-79
2022/12/03 05:52:18;;;;;;;24.95;15.80;;;;;;;;;;5043014;28;20033;-79
2022/12/03 05:54:44;;;;;;;27.70;14.93;;;;;;;;;;5034286;28;20033;-79
2022/12/03 05:57:10;;;;;;;23.98;14.05;;;;;;;;;;5032909;28;20036;-79
2022/12/03 05:59:36;;;;;;;24.27;12.82;;;;;;;;;;5051748;28;20456;-79
2022/12/03 06:02:02;;;;;;;23.67;13.48;;;;;;;;;;5042113;28;20037;-79
2022/12/03 06:04:28;;;;;;;25.77;14.45;;;;;;;;;;5050844;28;20575;-79
2022/12/03 06:06:54;;;;;;;23.25;14.07;;;;;;;;;;5048980;28;20033;-79
2022/12/03 06:09:20;;;;;;;23.88;13.50;;;;;;;;;;5032827;28;20032;-79
2022/12/03 06:11:46;;;;;;;25.30;15.88;;;;;;;;;;5051006;28;20032;-79
2022/12/03 06:14:12;;;;;;;27.75;17.08;;;;;;;;;;5051770;28;20028;-80
2022/12/03 06:16:38;;;;;;;30.05;16.75;;;;;;;;;;5048619;28;20519;-79
2022/12/03 06:19:04;;;;;;;30.90;16.88;;;;;;;;;;5050089;28;20094;-80
2022/12/03 06:21:30;;;;;;;29.17;16.65;;;;;;;;;;5050411;28;20040;-79
2022/12/03 06:23:56;;;;;;;31.45;17.63;;;;;;;;;;5051364;28;20100;-79
2022/12/03 06:26:22;;;;;;;29.55;18.17;;;;;;;;;;5050066;28;20107;-79
2022/12/03 06:28:48;;;;;;;31.77;18.00;;;;;;;;;;5051454;28;20029;-79
2022/12/03 06:31:14;;;;;;;25.98;16.75;;;;;;;;;;5035959;28;20029;-79
2022/12/03 06:33:40;;;;;;;27.02;15.73;;;;;;;;;;5050229;28;20038;-79
2022/12/03 06:36:06;;;;;;;25.02;16.77;;;;;;;;;;5050885;28;20029;-79
2022/12/03 06:38:32;;;;;;;30.70;17.02;;;;;;;;;;5030049;28;20033;-80
2022/12/03 06:40:58;;;;;;;25.42;16.15;;;;;;;;;;5029886;28;20033;-79
2022/12/03 06:43:24;;;;;;;31.13;20.38;;;;;;;;;;5032672;28;20083;-79
2022/12/03 06:45:50;;;;;;;31.58;19.67;;;;;;;;;;5029047;28;20044;-79
2022/12/03 06:48:16;;;;;;;35.25;19.70;;;;;;;;;;5050506;28;20936;-79
2022/12/03 06:50:42;;;;;;;33.30;21.25;;;;;;;;;;5045040;28;20025;-79
2022/12/03 06:53:08;;;;;;;35.88;23.25;;;;;;;;;;5049183;28;20037;-79
2022/12/03 06:55:34;;;;;;;32.20;18.83;;;;;;;;;;5050458;28;20033;-79
2022/12/03 06:58:00;;;;;;;33.17;20.40;;;;;;;;;;5050918;28;20144;-79
2022/12/03 07:00:26;;;;;;;34.50;21.50;;;;;;;;;;5043831;28;20033;-79
2022/12/03 07:02:52;;;;;;;34.47;22.13;;;;;;;;;;5050102;28;20051;-79
2022/12/03 07:05:18;;;;;;;38.03;25.08;;;;;;;;;;5049829;28;20048;-79
2022/12/03 07:07:50;;;;;;;49.03;26.38;;;;;;;;;;5050519;28;20120;-79
2022/12/03 07:10:16;;;;;;;44.13;26.08;;;;;;;;;;5023158;28;20108;-79
2022/12/03 07:12:42;;;;;;;40.40;25.77;;;;;;;;;;5044060;28;20036;-79
2022/12/03 07:15:08;;;;;;;35.08;22.88;;;;;;;;;;5049504;28;20037;-79
2022/12/03 07:17:34;;;;;;;42.78;28.15;;;;;;;;;;5031707;28;20778;-79
2022/12/03 07:20:00;;;;;;;32.47;21.00;;;;;;;;;;5049828;28;20108;-79
2022/12/03 07:22:26;;;;;;;31.27;20.10;;;;;;;;;;5043472;28;20025;-79
2022/12/03 07:24:52;;;;;;;33.55;18.90;;;;;;;;;;5027692;28;20037;-79
2022/12/03 07:27:18;;;;;;;31.23;21.05;;;;;;;;;;5041336;28;20038;-79
2022/12/03 07:29:44;;;;;;;35.95;21.70;;;;;;;;;;5054274;28;20051;-79
2022/12/03 07:32:10;;;;;;;32.58;20.48;;;;;;;;;;5035419;28;20052;-79
2022/12/03 07:34:36;;;;;;;33.85;22.25;;;;;;;;;;5054048;28;20029;-79
2022/12/03 07:37:02;;;;;;;37.03;22.15;;;;;;;;;;5048477;28;20021;-79
2022/12/03 07:39:29;;;;;;;33.75;22.48;;;;;;;;;;5053597;28;20601;-79
2022/12/03 07:41:55;;;;;;;32.33;21.27;;;;;;;;;;5053523;28;20147;-79
2022/12/03 07:44:21;;;;;;;34.60;23.65;;;;;;;;;;5052673;28;20115;-79
2022/12/03 07:46:47;;;;;;;30.27;20.83;;;;;;;;;;5051379;28;20036;-79
2022/12/03 07:49:13;;;;;;;36.75;20.83;;;;;;;;;;5053307;28;20440;-79
2022/12/03 07:51:39;;;;;;;37.67;23.65;;;;;;;;;;5051352;28;20379;-79
2022/12/03 07:54:05;;;;;;;40.35;22.85;;;;;;;;;;5052744;28;20100;-79
2022/12/03 07:56:31;;;;;;;44.08;27.02;;;;;;;;;;5052606;28;20029;-79
2022/12/03 07:58:57;;;;;;;46.17;30.15;;;;;;;;;;5047344;28;20049;-79
2022/12/03 08:01:23;;;;;;;38.50;25.85;;;;;;;;;;5033850;28;20036;-79
2022/12/03 08:03:49;;;;;;;36.58;22.33;;;;;;;;;;5034764;28;20116;-79
2022/12/03 08:06:15;;;;;;;33.22;20.00;;;;;;;;;;5050605;28;20073;-80
2022/12/03 08:08:42;;;;;;;31.15;19.80;;;;;;;;;;5020597;28;20025;-79
2022/12/03 08:11:10;;;;;;;31.75;20.20;;;;;;;;;;5052592;28;20035;-79
2022/12/03 08:13:36;;;;;;;28.42;17.40;;;;;;;;;;5034564;28;20781;-79
2022/12/03 08:16:11;;;;;;;29.80;19.42;;;;;;;;;;5046311;28;20060;-79
2022/12/03 08:18:37;;;;;;;31.95;20.73;;;;;;;;;;5049726;28;20403;-79
2022/12/03 08:21:05;;;;;;;32.30;19.88;;;;;;;;;;5046666;28;20034;-79
2022/12/03 08:23:31;;;;;;;35.13;20.67;;;;;;;;;;5049584;28;20463;-79
2022/12/03 08:26:00;;;;;;;38.55;19.90;;;;;;;;;;5052229;28;20028;-79
2022/12/03 08:28:27;;;;;;;37.22;21.83;;;;;;;;;;5052506;28;20044;-79
2022/12/03 08:30:56;;;;;;;34.63;18.38;;;;;;;;;;5049227;28;20537;-79
2022/12/03 08:33:26;;;;;;;34.45;19.52;;;;;;;;;;5051196;28;20033;-79
2022/12/03 08:35:53;;;;;;;28.33;17.33;;;;;;;;;;5050102;28;20108;-79
2022/12/03 08:38:21;;;;;;;35.92;19.60;;;;;;;;;;5051972;28;20075;-79
2022/12/03 08:40:48;;;;;;;28.30;17.80;;;;;;;;;;5034002;28;20059;-79
2022/12/03 08:43:26;;;;;;;30.27;17.00;;;;;;;;;;5049943;28;20091;-79
2022/12/03 08:45:53;;;;;;;26.10;17.77;;;;;;;;;;5051662;28;20506;-79
2022/12/03 08:48:22;;;;;;;32.55;18.67;;;;;;;;;;5051578;28;20075;-79
2022/12/03 08:50:48;;;;;;;32.90;19.15;;;;;;;;;;5052174;28;20116;-79
2022/12/03 08:53:31;;;;;;;27.90;16.85;;;;;;;;;;5048692;28;20033;-79
2022/12/03 08:56:17;;;;;;;29.95;17.30;;;;;;;;;;5048061;28;20033;-79
2022/12/03 08:58:44;;;;;;;30.27;18.23;;;;;;;;;;5039430;28;20484;-79
2022/12/03 09:01:10;;;;;;;42.25;23.88;;;;;;;;;;5051417;28;20029;-79
2022/12/03 09:03:37;;;;;;;44.40;24.38;;;;;;;;;;5052725;28;20044;-79
2022/12/03 09:06:03;;;;;;;45.83;23.10;;;;;;;;;;5051466;28;20035;-79
2022/12/03 09:08:29;;;;;;;42.55;23.00;;;;;;;;;;5052098;28;20032;-79
2022/12/03 09:10:55;;;;;;;41.50;22.73;;;;;;;;;;5033067;28;20669;-79
2022/12/03 09:13:21;;;;;;;35.47;18.00;;;;;;;;;;5048609;28;20040;-79
2022/12/03 09:15:47;;;;;;;29.17;17.65;;;;;;;;;;5051552;28;20044;-79
2022/12/03 09:18:13;;;;;;;28.85;16.60;;;;;;;;;;5040595;28;20037;-80
2022/12/03 09:20:39;;;;;;;23.55;15.88;;;;;;;;;;5050959;28;20439;-80
2022/12/03 09:23:06;;;;;;;28.55;15.80;;;;;;;;;;5051607;28;20035;-80
2022/12/03 09:25:32;;;;;;;19.63;12.30;;;;;;;;;;5047262;28;20029;-80
2022/12/03 09:27:58;;;;;;;21.15;12.18;;;;;;;;;;5050828;28;20061;-79
2022/12/03 09:30:24;;;;;;;17.02;10.77;;;;;;;;;;5051834;28;20057;-79
2022/12/03 09:32:50;;;;;;;20.70;13.07;;;;;;;;;;5051435;28;20402;-80
2022/12/03 09:35:16;;;;;;;25.73;13.20;;;;;;;;;;5036721;28;20040;-79
2022/12/03 09:37:42;;;;;;;24.90;14.98;;;;;;;;;;5051013;28;20112;-80
2022/12/03 09:40:09;;;;;;;27.90;16.23;;;;;;;;;;5051231;28;20068;-79
2022/12/03 09:42:35;;;;;;;24.08;16.42;;;;;;;;;;5033022;28;20036;-79
2022/12/03 09:45:02;;;;;;;31.23;16.83;;;;;;;;;;5033834;28;20025;-79
2022/12/03 09:47:30;;;;;;;26.38;16.95;;;;;;;;;;5050699;28;20036;-80
2022/12/03 09:49:57;;;;;;;27.65;17.75;;;;;;;;;;5050902;28;20700;-79
2022/12/03 09:52:24;;;;;;;26.05;16.10;;;;;;;;;;5050299;28;20824;-80
2022/12/03 09:54:50;;;;;;;26.90;16.20;;;;;;;;;;5051444;28;20053;-79
2022/12/03 09:57:17;;;;;;;26.88;17.65;;;;;;;;;;5049377;28;20479;-79
2022/12/03 09:59:43;;;;;;;25.27;15.90;;;;;;;;;;5049853;28;20376;-80
2022/12/03 10:02:19;;;;;;;28.05;16.70;;;;;;;;;;5051224;28;20037;-79
2022/12/03 10:04:45;;;;;;;26.83;17.50;;;;;;;;;;5046078;28;20796;-80
2022/12/03 10:07:11;;;;;;;25.60;15.93;;;;;;;;;;5051091;28;20037;-80
2022/12/03 10:09:37;;;;;;;23.63;15.48;;;;;;;;;;5050777;28;20029;-79
2022/12/03 10:12:03;;;;;;;32.60;17.42;;;;;;;;;;5023482;28;20465;-79
2022/12/03 10:14:29;;;;;;;29.88;18.27;;;;;;;;;;5046559;28;20025;-79
2022/12/03 10:16:55;;;;;;;32.20;16.10;;;;;;;;;;5045650;28;20464;-79
2022/12/03 10:19:24;;;;;;;28.52;18.33;;;;;;;;;;5046448;28;20121;-79
2022/12/03 10:21:49;;;;;;;34.53;19.95;;;;;;;;;;5053746;28;20029;-78
2022/12/03 10:24:21;;;;;;;33.08;22.30;;;;;;;;;;5049670;28;20033;-80
2022/12/03 10:26:48;;;;;;;35.35;21.88;;;;;;;;;;5050115;28;20086;-80
2022/12/03 10:29:17;;;;;;;35.90;21.83;;;;;;;;;;5033822;28;20041;-80
2022/12/03 10:31:43;;;;;;;32.70;21.30;;;;;;;;;;5032303;28;20039;-79
2022/12/03 10:34:10;;;;;;;32.95;22.50;;;;;;;;;;5053204;28;20033;-80
2022/12/03 10:36:36;;;;;;;32.95;21.88;;;;;;;;;;5034108;28;20065;-80
2022/12/03 10:39:08;;;;;;;36.58;22.63;;;;;;;;;;5024518;28;20037;-80
2022/12/03 10:41:34;;;;;;;35.08;22.38;;;;;;;;;;5034689;28;20033;-80
2022/12/03 10:44:18;;;;;;;38.08;24.48;;;;;;;;;;5052585;28;20064;-80
2022/12/03 10:46:45;;;;;;;41.95;22.75;;;;;;;;;;5014789;28;20079;-80
2022/12/03 10:49:20;;;;;;;40.90;25.35;;;;;;;;;;5029662;28;20025;-80
2022/12/03 10:51:47;;;;;;;39.28;22.63;;;;;;;;;;5044552;28;20057;-80
2022/12/03 10:54:19;;;;;;;32.13;21.40;;;;;;;;;;5025755;28;20029;-80
2022/12/03 10:56:45;;;;;;;38.67;23.25;;;;;;;;;;5048908;28;20044;-81
2022/12/03 10:59:22;;;;;;;40.00;21.20;;;;;;;;;;5029892;28;20107;-80
2022/12/03 11:01:49;;;;;;;35.90;22.00;;;;;;;;;;5025584;28;20473;-80
2022/12/03 11:04:19;;;;;;;35.45;22.23;;;;;;;;;;5032465;28;20132;-80
2022/12/03 11:06:45;;;;;;;38.10;23.58;;;;;;;;;;5031414;28;20079;-80
2022/12/03 11:09:15;;;;;;;36.78;23.85;;;;;;;;;;5031843;28;20075;-80
2022/12/03 11:11:41;;;;;;;32.88;22.88;;;;;;;;;;5027750;28;20037;-80
2022/12/03 11:14:09;;;;;;;35.63;22.98;;;;;;;;;;5032048;28;20424;-80
2022/12/03 11:16:38;;;;;;;35.70;23.55;;;;;;;;;;5029743;28;20036;-80
2022/12/03 11:19:17;;;;;;;41.92;26.05;;;;;;;;;;5030721;28;20551;-80
2022/12/03 11:22:02;;;;;;;34.72;21.13;;;;;;;;;;5030226;28;20060;-80
2022/12/03 11:24:28;;;;;;;35.47;21.70;;;;;;;;;;5027403;28;20121;-80
2022/12/03 11:26:54;;;;;;;36.38;22.98;;;;;;;;;;5030710;28;20030;-80
2022/12/03 11:29:40;;;;;;;33.38;21.45;;;;;;;;;;5028409;28;20033;-80
2022/12/03 11:32:06;;;;;;;34.65;21.50;;;;;;;;;;5030784;28;20029;-80
2022/12/03 11:34:32;;;;;;;35.35;20.77;;;;;;;;;;5031122;28;20396;-80
2022/12/03 11:37:10;;;;;;;35.22;22.77;;;;;;;;;;5026996;28;20033;-80
2022/12/03 11:39:53;;;;;;;33.75;21.75;;;;;;;;;;5027929;28;20464;-80
2022/12/03 11:42:24;;;;;;;35.53;21.65;;;;;;;;;;5031057;28;20510;-80
2022/12/03 11:45:10;;;;;;;34.60;23.75;;;;;;;;;;5025542;28;20038;-80
2022/12/03 11:47:44;;;;;;;37.50;21.58;;;;;;;;;;5018432;28;20037;-81
2022/12/03 11:50:22;;;;;;;36.58;20.15;;;;;;;;;;5031078;28;20036;-80
2022/12/03 11:53:08;;;;;;;33.83;22.20;;;;;;;;;;5029927;28;20036;-80
2022/12/03 11:55:39;;;;;;;35.58;20.88;;;;;;;;;;5021842;28;20737;-80
2022/12/03 11:58:12;;;;;;;33.58;22.58;;;;;;;;;;5041786;28;20045;-81
2022/12/03 12:00:38;;;;;;;32.95;22.95;;;;;;;;;;5033622;28;20874;-80
2022/12/03 12:03:04;;;;;;;36.60;23.48;;;;;;;;;;5040765;28;20032;-80
2022/12/03 12:05:34;;;;;;;34.72;21.92;;;;;;;;;;5034387;28;20029;-80
2022/12/03 12:08:01;;;;;;;33.65;21.15;;;;;;;;;;5049067;28;20071;-80
2022/12/03 12:10:41;;;;;;;32.08;21.75;;;;;;;;;;5051557;28;20033;-80
2022/12/03 12:13:24;;;;;;;35.63;22.92;;;;;;;;;;5044843;28;20029;-81
2022/12/03 12:15:50;;;;;;;32.33;21.23;;;;;;;;;;5025971;28;20033;-80
2022/12/03 12:18:39;;;;;;;35.63;21.90;;;;;;;;;;5050242;28;20037;-80
2022/12/03 12:21:24;;;;;;;35.92;22.00;;;;;;;;;;5048782;28;20040;-81
2022/12/03 12:23:50;;;;;;;35.95;22.98;;;;;;;;;;5033116;28;20371;-80
2022/12/03 12:26:16;;;;;;;37.53;23.05;;;;;;;;;;5033394;28;20041;-81
2022/12/03 12:28:42;;;;;;;39.13;24.33;;;;;;;;;;5029802;28;20035;-80
2022/12/03 12:31:11;;;;;;;35.63;23.83;;;;;;;;;;5033552;28;20064;-80
2022/12/03 12:33:37;;;;;;;33.13;21.75;;;;;;;;;;5051099;28;20550;-81
2022/12/03 12:36:10;;;;;;;33.47;21.27;;;;;;;;;;5033933;28;20083;-80
2022/12/03 12:38:36;;;;;;;36.67;21.50;;;;;;;;;;5030388;28;20114;-80
2022/12/03 12:41:06;;;;;;;33.88;22.08;;;;;;;;;;5050811;28;20491;-80
2022/12/03 12:43:33;;;;;;;31.90;21.77;;;;;;;;;;5032912;28;20037;-80
2022/12/03 12:46:00;;;;;;;32.45;22.38;;;;;;;;;;5050594;28;20045;-81
2022/12/03 12:48:28;;;;;;;32.92;21.20;;;;;;;;;;5031086;28;20041;-80
2022/12/03 12:51:20;;;;;;;36.25;21.75;;;;;;;;;;5031675;28;20071;-80
2022/12/03 12:53:47;;;;;;;32.97;20.65;;;;;;;;;;5027819;28;20041;-80
2022/12/03 12:56:23;;;;;;;37.10;24.05;;;;;;;;;;5031483;28;20079;-80
2022/12/03 12:58:49;;;;;;;33.83;21.90;;;;;;;;;;5031883;28;20085;-81
2022/12/03 13:01:36;;;;;;;35.70;22.13;;;;;;;;;;5032299;28;20036;-80
2022/12/03 13:04:06;;;;;;;36.08;24.80;;;;;;;;;;5032481;28;20032;-80
2022/12/03 13:06:34;;;;;;;35.65;23.08;;;;;;;;;;5032512;28;20095;-80
2022/12/03 13:09:00;;;;;;;32.90;22.20;;;;;;;;;;5032847;28;20075;-80
2022/12/03 13:11:29;;;;;;;36.95;23.08;;;;;;;;;;5047959;28;20066;-80
2022/12/03 13:13:55;;;;;;;34.28;22.80;;;;;;;;;;5025187;28;20631;-80
2022/12/03 13:16:30;;;;;;;34.00;22.55;;;;;;;;;;5032354;28;20036;-80
2022/12/03 13:18:56;;;;;;;33.70;21.30;;;;;;;;;;5024672;28;20134;-80
2022/12/03 13:21:35;;;;;;;35.72;21.83;;;;;;;;;;5031611;28;20365;-80
2022/12/03 13:24:01;;;;;;;35.83;23.10;;;;;;;;;;5051011;28;20048;-81
2022/12/03 13:26:30;;;;;;;32.55;21.92;;;;;;;;;;5031962;28;20475;-80
2022/12/03 13:28:56;;;;;;;37.53;22.95;;;;;;;;;;5029138;28;20068;-80
2022/12/03 13:31:25;;;;;;;30.73;21.33;;;;;;;;;;5040079;28;20033;-81
2022/12/03 13:33:52;;;;;;;31.15;20.02;;;;;;;;;;5050803;28;20032;-81
2022/12/03 13:36:19;;;;;;;30.10;20.33;;;;;;;;;;5049724;28;20842;-80
2022/12/03 13:38:45;;;;;;;32.15;21.27;;;;;;;;;;5031902;28;20033;-80
2022/12/03 13:42:37;;;;;;;30.23;19.33;;;;;;;;;;5049593;28;20029;-80
2022/12/03 13:44:02;;;;;;;30.13;21.75;;;;;;;;;;5044136;28;20818;-81
2022/12/03 13:46:31;;;;;;;31.52;22.10;;;;;;;;;;5029991;28;20052;-80
2022/12/03 13:48:57;;;;;;;30.83;21.60;;;;;;;;;;5047266;28;20025;-80
2022/12/03 13:51:25;;;;;;;33.38;21.77;;;;;;;;;;5049643;28;20074;-80
2022/12/03 13:53:52;;;;;;;34.17;21.92;;;;;;;;;;5031829;28;20033;-80
2022/12/03 13:56:28;;;;;;;33.25;22.10;;;;;;;;;;5024439;28;20037;-81
2022/12/03 13:58:59;;;;;;;31.33;21.70;;;;;;;;;;5042304;28;20123;-80
2022/12/03 14:01:25;;;;;;;30.25;19.83;;;;;;;;;;5030244;28;20120;-80
2022/12/03 14:03:52;;;;;;;32.75;22.30;;;;;;;;;;5027940;28;20121;-80
2022/12/03 14:06:18;;;;;;;31.90;22.45;;;;;;;;;;5030908;28;20044;-81
2022/12/03 14:08:59;;;;;;;35.90;23.80;;;;;;;;;;5005512;28;20057;-80
2022/12/03 14:14:10;;;;;;;34.45;24.33;;;;;;;;;;5049195;28;20084;-80
2022/12/03 14:16:36;;;;;;;34.30;22.83;;;;;;;;;;5029213;28;20056;-80
2022/12/03 14:19:02;;;;;;;36.72;22.02;;;;;;;;;;5031450;28;20072;-81
2022/12/03 14:21:28;;;;;;;33.40;22.25;;;;;;;;;;5046081;28;20108;-81
2022/12/03 14:23:53;;;;;;;35.58;24.25;;;;;;;;;;5031009;28;20046;-80
2022/12/03 14:26:19;;;;;;;32.55;22.10;;;;;;;;;;5031040;28;20123;-80
2022/12/03 14:28:45;;;;;;;39.42;25.00;;;;;;;;;;5031398;28;20460;-80
2022/12/03 14:31:11;;;;;;;33.90;23.58;;;;;;;;;;5029337;28;20032;-80
2022/12/03 14:33:37;;;;;;;34.85;21.70;;;;;;;;;;5049685;28;20032;-81
2022/12/03 14:36:04;;;;;;;33.17;21.88;;;;;;;;;;5027629;28;20078;-81
2022/12/03 14:38:30;;;;;;;32.67;22.08;;;;;;;;;;5031243;28;20472;-81
2022/12/03 14:40:56;;;;;;;35.75;22.88;;;;;;;;;;5028824;28;20037;-80
2022/12/03 14:43:22;;;;;;;30.77;20.20;;;;;;;;;;5027924;28;20056;-80
2022/12/03 14:45:48;;;;;;;32.47;20.58;;;;;;;;;;5036121;28;20029;-81